sensor_id;sensor_type;location;lat;lon;timestamp;pressure;altitude;pressure_sealevel;temperature;humidity
21826;BME280;11075;47.944;11.776;2023-01-29T00:01:22;95581.53;;;5.89;21.26
21826;BME280;11075;47.944;11.776;2023-01-29T00:03:50;95588.81;;;4.19;23.01
21826;BME280;11075;47.944;11.776;2023-01-29T00:06:17;95570.69;;;2.60;25.02
21826;BME280;11075;47.944;11.776;2023-01-29T00:08:45;95583.28;;;4.00;23.07
21826;BME280;11075;47.944;11.776;2023-01-29T00:11:12;95589.47;;;6.42;21.28
21826;BME280;11075;47.944;11.776;2023-01-29T00:13:39;95601.09;;;6.70;20.43
21826;BME280;11075;47.944;11.776;2023-01-29T00:16:06;95599.53;;;6.69;20.52
21826;BME280;11075;47.944;11.776;2023-01-29T00:18:37;95594.97;;;6.51;20.94
21826;BME280;11075;47.944;11.776;2023-01-29T00:21:11;95594.84;;;6.37;20.92
21826;BME280;11075;47.944;11.776;2023-01-29T00:23:39;95584.03;;;4.60;22.56
21826;BME280;11075;47.944;11.776;2023-01-29T00:26:06;95580.44;;;4.35;22.86
21826;BME280;11075;47.944;11.776;2023-01-29T00:28:33;95572.47;;;2.13;25.50
21826;BME280;11075;47.944;11.776;2023-01-29T00:31:12;95560.34;;;-0.05;27.52
21826;BME280;11075;47.944;11.776;2023-01-29T00:33:39;95560.28;;;3.34;23.59
21826;BME280;11075;47.944;11.776;2023-01-29T00:36:09;95568.09;;;4.00;23.24
21826;BME280;11075;47.944;11.776;2023-01-29T00:38:37;95572.00;;;4.67;22.67
21826;BME280;11075;47.944;11.776;2023-01-29T00:41:06;95587.81;;;5.80;21.42
21826;BME280;11075;47.944;11.776;2023-01-29T00:43:51;95586.34;;;5.11;22.18
21826;BME280;11075;47.944;11.776;2023-01-29T00:46:37;95597.94;;;5.59;21.72
21826;BME280;11075;47.944;11.776;2023-01-29T00:49:04;95589.81;;;5.69;21.35
21826;BME280;11075;47.944;11.776;2023-01-29T00:51:32;95597.97;;;5.25;22.06
21826;BME280;11075;47.944;11.776;2023-01-29T00:53:59;95604.53;;;5.90;21.88
21826;BME280;11075;47.944;11.776;2023-01-29T00:56:27;95599.41;;;5.70;22.07
21826;BME280;11075;47.944;11.776;2023-01-29T00:58:55;95603.50;;;5.33;22.28
21826;BME280;11075;47.944;11.776;2023-01-29T01:01:22;95587.19;;;5.06;22.71
21826;BME280;11075;47.944;11.776;2023-01-29T01:04:10;95582.41;;;4.20;23.44
21826;BME280;11075;47.944;11.776;2023-01-29T01:06:38;95587.50;;;4.60;23.10
21826;BME280;11075;47.944;11.776;2023-01-29T01:09:07;95587.63;;;2.08;26.00
21826;BME280;11075;47.944;11.776;2023-01-29T01:11:54;95597.91;;;4.13;23.53
21826;BME280;11075;47.944;11.776;2023-01-29T01:14:21;95594.88;;;3.55;24.02
21826;BME280;11075;47.944;11.776;2023-01-29T01:16:48;95607.16;;;5.14;21.95
21826;BME280;11075;47.944;11.776;2023-01-29T01:19:15;95603.06;;;5.21;22.25
21826;BME280;11075;47.944;11.776;2023-01-29T01:21:43;95608.81;;;4.70;23.16
21826;BME280;11075;47.944;11.776;2023-01-29T01:24:12;95594.44;;;2.82;24.61
21826;BME280;11075;47.944;11.776;2023-01-29T01:26:40;95580.63;;;4.49;23.39
21826;BME280;11075;47.944;11.776;2023-01-29T01:29:07;95584.03;;;4.16;23.68
21826;BME280;11075;47.944;11.776;2023-01-29T01:31:34;95579.41;;;2.14;25.74
21826;BME280;11075;47.944;11.776;2023-01-29T01:34:01;95600.38;;;4.48;22.89
21826;BME280;11075;47.944;11.776;2023-01-29T01:36:29;95591.25;;;4.59;23.29
21826;BME280;11075;47.944;11.776;2023-01-29T01:38:57;95579.72;;;2.38;25.52
21826;BME280;11075;47.944;11.776;2023-01-29T01:41:24;95603.56;;;5.81;21.76
21826;BME280;11075;47.944;11.776;2023-01-29T01:44:00;95602.59;;;5.14;22.01
21826;BME280;11075;47.944;11.776;2023-01-29T01:46:28;95602.84;;;6.42;21.34
21826;BME280;11075;47.944;11.776;2023-01-29T01:49:10;95604.38;;;5.24;22.15
21826;BME280;11075;47.944;11.776;2023-01-29T01:51:42;95611.59;;;5.81;21.43
21826;BME280;11075;47.944;11.776;2023-01-29T01:54:17;95609.72;;;6.86;21.01
21826;BME280;11075;47.944;11.776;2023-01-29T01:56:52;95607.34;;;5.22;22.25
21826;BME280;11075;47.944;11.776;2023-01-29T01:59:21;95592.41;;;4.43;23.33
21826;BME280;11075;47.944;11.776;2023-01-29T02:01:52;95592.84;;;4.60;23.04
21826;BME280;11075;47.944;11.776;2023-01-29T02:04:22;95604.88;;;6.50;21.02
21826;BME280;11075;47.944;11.776;2023-01-29T02:07:11;95588.59;;;4.54;22.94
21826;BME280;11075;47.944;11.776;2023-01-29T02:10:09;95591.59;;;3.93;23.54
21826;BME280;11075;47.944;11.776;2023-01-29T02:12:37;95590.84;;;4.37;23.20
21826;BME280;11075;47.944;11.776;2023-01-29T02:15:05;95604.34;;;5.29;22.59
21826;BME280;11075;47.944;11.776;2023-01-29T02:17:32;95606.41;;;2.99;24.37
21826;BME280;11075;47.944;11.776;2023-01-29T02:36:50;95629.28;;;6.01;21.57
21826;BME280;11075;47.944;11.776;2023-01-29T02:39:30;95610.00;;;4.49;23.16
21826;BME280;11075;47.944;11.776;2023-01-29T02:44:37;95611.78;;;4.15;23.35
21826;BME280;11075;47.944;11.776;2023-01-29T02:49:51;95605.66;;;4.63;23.33
21826;BME280;11075;47.944;11.776;2023-01-29T02:52:37;95599.88;;;3.92;23.14
21826;BME280;11075;47.944;11.776;2023-01-29T02:55:12;95604.47;;;5.43;21.83
21826;BME280;11075;47.944;11.776;2023-01-29T02:57:45;95602.22;;;5.84;21.98
21826;BME280;11075;47.944;11.776;2023-01-29T03:00:20;95599.09;;;4.40;23.02
21826;BME280;11075;47.944;11.776;2023-01-29T03:02:57;95596.34;;;4.61;23.10
21826;BME280;11075;47.944;11.776;2023-01-29T03:05:57;95574.28;;;1.40;26.71
21826;BME280;11075;47.944;11.776;2023-01-29T03:08:35;95567.63;;;1.90;26.18
21826;BME280;11075;47.944;11.776;2023-01-29T03:11:10;95570.22;;;1.75;26.69
21826;BME280;11075;47.944;11.776;2023-01-29T03:16:50;95574.63;;;4.28;23.72
21826;BME280;11075;47.944;11.776;2023-01-29T03:19:27;95583.69;;;4.27;23.65
21826;BME280;11075;47.944;11.776;2023-01-29T03:22:00;95573.56;;;3.70;23.88
21826;BME280;11075;47.944;11.776;2023-01-29T03:24:34;95569.53;;;3.78;23.93
21826;BME280;11075;47.944;11.776;2023-01-29T03:27:27;95559.22;;;2.34;25.91
21826;BME280;11075;47.944;11.776;2023-01-29T03:30:15;95572.22;;;4.71;22.91
21826;BME280;11075;47.944;11.776;2023-01-29T03:33:23;95547.28;;;3.13;25.13
21826;BME280;11075;47.944;11.776;2023-01-29T03:35:57;95554.25;;;1.65;26.00
21826;BME280;11075;47.944;11.776;2023-01-29T03:38:27;95567.53;;;4.03;23.64
21826;BME280;11075;47.944;11.776;2023-01-29T03:40:58;95566.97;;;3.32;24.42
21826;BME280;11075;47.944;11.776;2023-01-29T03:46:26;95553.06;;;2.13;25.71
21826;BME280;11075;47.944;11.776;2023-01-29T03:49:08;95551.94;;;3.77;24.25
21826;BME280;11075;47.944;11.776;2023-01-29T03:51:59;95557.69;;;2.94;24.67
21826;BME280;11075;47.944;11.776;2023-01-29T03:57:34;95577.22;;;5.93;21.96
21826;BME280;11075;47.944;11.776;2023-01-29T04:00:35;95581.31;;;5.62;21.92
21826;BME280;11075;47.944;11.776;2023-01-29T04:03:22;95581.53;;;5.89;21.47
21826;BME280;11075;47.944;11.776;2023-01-29T04:05:54;95587.03;;;6.97;20.35
21826;BME280;11075;47.944;11.776;2023-01-29T04:08:51;95580.28;;;4.66;23.15
21826;BME280;11075;47.944;11.776;2023-01-29T04:11:22;95584.09;;;6.80;20.80
21826;BME280;11075;47.944;11.776;2023-01-29T04:13:50;95577.97;;;6.93;20.66
21826;BME280;11075;47.944;11.776;2023-01-29T04:16:28;95577.69;;;7.73;19.90
21826;BME280;11075;47.944;11.776;2023-01-29T04:19:15;95574.09;;;7.18;20.12
21826;BME280;11075;47.944;11.776;2023-01-29T04:21:44;95568.53;;;5.01;22.54
21826;BME280;11075;47.944;11.776;2023-01-29T04:24:12;95549.72;;;6.49;21.28
21826;BME280;11075;47.944;11.776;2023-01-29T04:29:39;95545.53;;;6.43;21.05
21826;BME280;11075;47.944;11.776;2023-01-29T04:35:40;95542.69;;;7.05;21.04
21826;BME280;11075;47.944;11.776;2023-01-29T04:40:56;95548.59;;;6.88;20.93
21826;BME280;11075;47.944;11.776;2023-01-29T04:51:50;95554.63;;;5.57;21.96
21826;BME280;11075;47.944;11.776;2023-01-29T05:00:24;95574.09;;;6.29;21.26
21826;BME280;11075;47.944;11.776;2023-01-29T05:02:49;95566.38;;;4.69;22.81
21826;BME280;11075;47.944;11.776;2023-01-29T05:05:18;95554.78;;;5.89;21.87
21826;BME280;11075;47.944;11.776;2023-01-29T05:07:47;95551.41;;;5.60;21.87
21826;BME280;11075;47.944;11.776;2023-01-29T05:10:17;95556.91;;;6.54;21.07
21826;BME280;11075;47.944;11.776;2023-01-29T05:12:50;95554.59;;;6.47;21.43
21826;BME280;11075;47.944;11.776;2023-01-29T05:15:22;95560.16;;;5.89;21.59
21826;BME280;11075;47.944;11.776;2023-01-29T05:17:51;95554.19;;;6.35;21.03
21826;BME280;11075;47.944;11.776;2023-01-29T05:20:20;95560.69;;;6.29;21.44
21826;BME280;11075;47.944;11.776;2023-01-29T05:22:47;95565.75;;;6.87;20.94
21826;BME280;11075;47.944;11.776;2023-01-29T05:27:48;95564.84;;;5.50;22.62
21826;BME280;11075;47.944;11.776;2023-01-29T05:30:38;95584.28;;;6.27;21.63
21826;BME280;11075;47.944;11.776;2023-01-29T05:33:20;95587.66;;;5.42;22.24
21826;BME280;11075;47.944;11.776;2023-01-29T05:35:47;95575.06;;;4.40;23.25
21826;BME280;11075;47.944;11.776;2023-01-29T05:38:15;95583.38;;;5.70;22.43
21826;BME280;11075;47.944;11.776;2023-01-29T05:40:43;95593.75;;;6.38;21.57
21826;BME280;11075;47.944;11.776;2023-01-29T05:43:20;95591.69;;;6.73;21.33
21826;BME280;11075;47.944;11.776;2023-01-29T05:45:58;95587.66;;;6.56;21.53
21826;BME280;11075;47.944;11.776;2023-01-29T05:48:27;95594.72;;;6.85;20.91
21826;BME280;11075;47.944;11.776;2023-01-29T05:51:01;95585.75;;;4.85;22.54
21826;BME280;11075;47.944;11.776;2023-01-29T05:53:29;95598.16;;;5.86;22.04
21826;BME280;11075;47.944;11.776;2023-01-29T05:56:00;95597.25;;;5.43;22.41
21826;BME280;11075;47.944;11.776;2023-01-29T05:58:29;95609.78;;;5.77;21.99
21826;BME280;11075;47.944;11.776;2023-01-29T06:00:57;95608.38;;;5.26;23.04
21826;BME280;11075;47.944;11.776;2023-01-29T06:03:24;95591.97;;;2.50;25.81
21826;BME280;11075;47.944;11.776;2023-01-29T06:05:50;95583.94;;;3.71;24.65
21826;BME280;11075;47.944;11.776;2023-01-29T06:08:17;95592.56;;;5.01;22.72
21826;BME280;11075;47.944;11.776;2023-01-29T06:10:44;95605.06;;;6.35;21.77
21826;BME280;11075;47.944;11.776;2023-01-29T06:13:10;95609.38;;;5.01;22.84
21826;BME280;11075;47.944;11.776;2023-01-29T06:15:39;95592.69;;;3.82;23.60
21826;BME280;11075;47.944;11.776;2023-01-29T06:18:06;95587.69;;;4.74;23.27
21826;BME280;11075;47.944;11.776;2023-01-29T06:20:32;95603.00;;;7.67;20.29
21826;BME280;11075;47.944;11.776;2023-01-29T06:22:59;95614.28;;;7.37;20.32
21826;BME280;11075;47.944;11.776;2023-01-29T06:25:27;95623.38;;;7.68;20.21
21826;BME280;11075;47.944;11.776;2023-01-29T06:27:54;95613.09;;;6.91;20.93
21826;BME280;11075;47.944;11.776;2023-01-29T06:30:24;95599.66;;;5.45;22.84
21826;BME280;11075;47.944;11.776;2023-01-29T06:32:55;95609.00;;;6.61;21.59
21826;BME280;11075;47.944;11.776;2023-01-29T06:35:24;95607.81;;;4.02;23.42
21826;BME280;11075;47.944;11.776;2023-01-29T06:37:51;95605.31;;;4.75;23.21
21826;BME280;11075;47.944;11.776;2023-01-29T06:40:18;95610.00;;;6.04;22.08
21826;BME280;11075;47.944;11.776;2023-01-29T06:42:45;95610.59;;;4.85;22.86
21826;BME280;11075;47.944;11.776;2023-01-29T06:45:12;95604.88;;;5.84;22.09
21826;BME280;11075;47.944;11.776;2023-01-29T06:47:39;95607.91;;;6.20;21.62
21826;BME280;11075;47.944;11.776;2023-01-29T06:50:06;95619.19;;;6.78;21.35
21826;BME280;11075;47.944;11.776;2023-01-29T06:52:33;95618.13;;;6.60;21.21
21826;BME280;11075;47.944;11.776;2023-01-29T06:55:00;95624.38;;;7.07;20.85
21826;BME280;11075;47.944;11.776;2023-01-29T06:57:28;95614.09;;;5.44;22.51
21826;BME280;11075;47.944;11.776;2023-01-29T06:59:55;95609.25;;;5.98;21.94
21826;BME280;11075;47.944;11.776;2023-01-29T07:02:22;95622.03;;;6.68;21.32
21826;BME280;11075;47.944;11.776;2023-01-29T07:04:49;95621.94;;;6.12;21.80
21826;BME280;11075;47.944;11.776;2023-01-29T07:07:16;95622.44;;;5.66;21.90
21826;BME280;11075;47.944;11.776;2023-01-29T07:09:43;95608.56;;;6.54;21.60
21826;BME280;11075;47.944;11.776;2023-01-29T07:12:10;95598.56;;;5.46;22.84
21826;BME280;11075;47.944;11.776;2023-01-29T07:14:37;95605.09;;;6.11;21.96
21826;BME280;11075;47.944;11.776;2023-01-29T07:17:04;95602.88;;;5.13;22.69
21826;BME280;11075;47.944;11.776;2023-01-29T07:19:31;95602.59;;;5.72;22.23
21826;BME280;11075;47.944;11.776;2023-01-29T07:21:58;95607.38;;;5.99;22.13
21826;BME280;11075;47.944;11.776;2023-01-29T07:24:28;95603.25;;;5.01;22.91
21826;BME280;11075;47.944;11.776;2023-01-29T07:26:55;95612.50;;;5.43;22.27
21826;BME280;11075;47.944;11.776;2023-01-29T07:29:22;95601.84;;;5.66;22.26
21826;BME280;11075;47.944;11.776;2023-01-29T07:31:49;95592.06;;;4.05;24.28
21826;BME280;11075;47.944;11.776;2023-01-29T07:34:16;95595.31;;;5.49;22.86
21826;BME280;11075;47.944;11.776;2023-01-29T07:36:43;95582.78;;;4.47;23.64
21826;BME280;11075;47.944;11.776;2023-01-29T07:39:10;95582.72;;;4.57;23.44
21826;BME280;11075;47.944;11.776;2023-01-29T07:41:36;95563.00;;;3.04;25.25
21826;BME280;11075;47.944;11.776;2023-01-29T07:44:13;95565.28;;;5.04;23.55
21826;BME280;11075;47.944;11.776;2023-01-29T07:46:40;95546.38;;;1.95;26.83
21826;BME280;11075;47.944;11.776;2023-01-29T07:49:07;95561.28;;;4.28;23.98
21826;BME280;11075;47.944;11.776;2023-01-29T07:51:34;95572.81;;;6.45;21.82
21826;BME280;11075;47.944;11.776;2023-01-29T07:54:00;95569.94;;;5.99;21.98
21826;BME280;11075;47.944;11.776;2023-01-29T07:56:27;95571.19;;;5.83;22.30
21826;BME280;11075;47.944;11.776;2023-01-29T07:58:55;95566.22;;;5.95;22.34
21826;BME280;11075;47.944;11.776;2023-01-29T08:01:21;95554.63;;;3.71;24.44
21826;BME280;11075;47.944;11.776;2023-01-29T08:03:48;95543.28;;;2.34;26.45
21826;BME280;11075;47.944;11.776;2023-01-29T08:06:17;95546.38;;;4.66;23.80
21826;BME280;11075;47.944;11.776;2023-01-29T08:08:44;95558.84;;;4.32;24.25
21826;BME280;11075;47.944;11.776;2023-01-29T08:11:11;95547.47;;;3.47;25.32
21826;BME280;11075;47.944;11.776;2023-01-29T08:13:38;95552.78;;;4.65;24.00
21826;BME280;11075;47.944;11.776;2023-01-29T08:16:05;95557.22;;;5.09;23.36
21826;BME280;11075;47.944;11.776;2023-01-29T08:18:32;95560.94;;;5.13;23.24
21826;BME280;11075;47.944;11.776;2023-01-29T08:21:00;95549.59;;;5.26;23.53
21826;BME280;11075;47.944;11.776;2023-01-29T08:23:26;95551.25;;;7.20;21.68
21826;BME280;11075;47.944;11.776;2023-01-29T08:25:54;95568.03;;;8.27;19.95
21826;BME280;11075;47.944;11.776;2023-01-29T08:28:20;95602.16;;;12.16;16.30
21826;BME280;11075;47.944;11.776;2023-01-29T08:30:47;95604.28;;;12.02;16.65
21826;BME280;11075;47.944;11.776;2023-01-29T08:33:14;95605.44;;;13.01;15.96
21826;BME280;11075;47.944;11.776;2023-01-29T08:35:50;95609.59;;;11.90;16.91
21826;BME280;11075;47.944;11.776;2023-01-29T08:38:17;95615.91;;;13.24;15.88
21826;BME280;11075;47.944;11.776;2023-01-29T08:40:44;95599.19;;;8.50;19.61
21826;BME280;11075;47.944;11.776;2023-01-29T08:43:12;95613.00;;;11.52;17.15
21826;BME280;11075;47.944;11.776;2023-01-29T08:45:41;95608.63;;;11.94;16.51
21826;BME280;11075;47.944;11.776;2023-01-29T08:48:08;95616.91;;;13.52;15.25
21826;BME280;11075;47.944;11.776;2023-01-29T08:50:36;95624.22;;;12.18;16.27
21826;BME280;11075;47.944;11.776;2023-01-29T08:53:04;95643.94;;;14.43;15.06
21826;BME280;11075;47.944;11.776;2023-01-29T08:55:40;95659.19;;;15.24;14.06
21826;BME280;11075;47.944;11.776;2023-01-29T08:58:09;95650.50;;;12.09;16.12
21826;BME280;11075;47.944;11.776;2023-01-29T09:00:36;95653.47;;;9.78;18.29
21826;BME280;11075;47.944;11.776;2023-01-29T09:03:04;95658.75;;;9.61;18.21
21826;BME280;11075;47.944;11.776;2023-01-29T09:05:33;95660.28;;;11.84;16.93
21826;BME280;11075;47.944;11.776;2023-01-29T09:08:01;95689.81;;;14.48;14.18
21826;BME280;11075;47.944;11.776;2023-01-29T09:10:28;95687.38;;;15.60;13.70
21826;BME280;11075;47.944;11.776;2023-01-29T09:12:55;95687.78;;;15.89;14.05
21826;BME280;11075;47.944;11.776;2023-01-29T09:15:22;95704.72;;;14.78;14.46
21826;BME280;11075;47.944;11.776;2023-01-29T09:17:49;95699.41;;;16.18;13.51
21826;BME280;11075;47.944;11.776;2023-01-29T09:20:17;95704.03;;;16.96;12.84
21826;BME280;11075;47.944;11.776;2023-01-29T09:22:45;95711.91;;;15.23;13.84
21826;BME280;11075;47.944;11.776;2023-01-29T09:25:12;95712.16;;;16.61;13.41
21826;BME280;11075;47.944;11.776;2023-01-29T09:27:40;95723.41;;;16.60;12.89
21826;BME280;11075;47.944;11.776;2023-01-29T09:30:08;95731.13;;;15.70;12.76
21826;BME280;11075;47.944;11.776;2023-01-29T09:32:35;95723.63;;;16.86;13.18
21826;BME280;11075;47.944;11.776;2023-01-29T09:35:23;95717.81;;;14.40;14.44
21826;BME280;11075;47.944;11.776;2023-01-29T09:37:50;95718.63;;;9.08;18.37
21826;BME280;11075;47.944;11.776;2023-01-29T09:43:01;95670.94;;;5.83;22.33
21826;BME280;11075;47.944;11.776;2023-01-29T09:45:30;95674.09;;;5.90;22.29
21826;BME280;11075;47.944;11.776;2023-01-29T09:48:02;95674.78;;;5.43;22.71
21826;BME280;11075;47.944;11.776;2023-01-29T09:50:38;95681.59;;;6.12;21.75
21826;BME280;11075;47.944;11.776;2023-01-29T09:53:17;95684.00;;;6.14;21.65
21826;BME280;11075;47.944;11.776;2023-01-29T09:55:49;95688.59;;;6.56;21.23
21826;BME280;11075;47.944;11.776;2023-01-29T09:58:28;95674.75;;;5.77;21.88
21826;BME280;11075;47.944;11.776;2023-01-29T10:09:27;95679.81;;;4.12;23.53
21826;BME280;11075;47.944;11.776;2023-01-29T10:14:58;95677.03;;;6.60;20.76
21826;BME280;11075;47.944;11.776;2023-01-29T10:25:19;95662.75;;;4.03;23.09
21826;BME280;11075;47.944;11.776;2023-01-29T10:27:50;95665.97;;;4.59;22.51
21826;BME280;11075;47.944;11.776;2023-01-29T10:30:27;95661.53;;;5.62;22.32
21826;BME280;11075;47.944;11.776;2023-01-29T10:32:59;95663.78;;;7.07;20.96
21826;BME280;11075;47.944;11.776;2023-01-29T10:35:33;95667.59;;;6.20;21.47
21826;BME280;11075;47.944;11.776;2023-01-29T10:38:23;95654.41;;;5.52;22.42
21826;BME280;11075;47.944;11.776;2023-01-29T10:40:59;95654.22;;;1.76;25.90
21826;BME280;11075;47.944;11.776;2023-01-29T10:46:28;95647.88;;;4.51;23.38
21826;BME280;11075;47.944;11.776;2023-01-29T10:49:44;95646.88;;;4.37;22.92
21826;BME280;11075;47.944;11.776;2023-01-29T11:00:37;95645.97;;;5.35;22.52
21826;BME280;11075;47.944;11.776;2023-01-29T11:03:32;95621.00;;;3.53;24.32
21826;BME280;11075;47.944;11.776;2023-01-29T11:08:37;95622.38;;;3.25;24.26
21826;BME280;11075;47.944;11.776;2023-01-29T11:11:10;95635.44;;;5.78;21.84
21826;BME280;11075;47.944;11.776;2023-01-29T11:13:52;95637.22;;;5.29;21.25
21826;BME280;11075;47.944;11.776;2023-01-29T11:16:20;95625.88;;;6.38;20.43
21826;BME280;11075;47.944;11.776;2023-01-29T11:21:15;95629.13;;;6.59;21.16
21826;BME280;11075;47.944;11.776;2023-01-29T11:23:42;95623.66;;;5.79;21.91
21826;BME280;11075;47.944;11.776;2023-01-29T11:26:17;95629.25;;;6.68;21.34
21826;BME280;11075;47.944;11.776;2023-01-29T11:28:46;95632.22;;;4.84;23.13
21826;BME280;11075;47.944;11.776;2023-01-29T11:31:25;95635.38;;;6.07;21.96
21826;BME280;11075;47.944;11.776;2023-01-29T11:34:01;95617.81;;;6.43;21.56
21826;BME280;11075;47.944;11.776;2023-01-29T11:36:37;95635.97;;;4.83;21.92
21826;BME280;11075;47.944;11.776;2023-01-29T11:44:31;95620.50;;;5.43;21.78
21826;BME280;11075;47.944;11.776;2023-01-29T11:49:49;95623.69;;;6.21;21.50
21826;BME280;11075;47.944;11.776;2023-01-29T11:52:18;95611.13;;;5.74;22.13
21826;BME280;11075;47.944;11.776;2023-01-29T11:55:01;95609.09;;;5.90;21.63
21826;BME280;11075;47.944;11.776;2023-01-29T11:57:33;95600.03;;;4.65;22.58
21826;BME280;11075;47.944;11.776;2023-01-29T12:00:04;95594.16;;;2.83;23.74
21826;BME280;11075;47.944;11.776;2023-01-29T12:02:40;95579.56;;;4.01;23.20
21826;BME280;11075;47.944;11.776;2023-01-29T12:05:18;95583.53;;;4.08;22.76
21826;BME280;11075;47.944;11.776;2023-01-29T12:07:49;95571.84;;;6.36;20.99
21826;BME280;11075;47.944;11.776;2023-01-29T12:10:40;95569.91;;;6.60;20.71
21826;BME280;11075;47.944;11.776;2023-01-29T12:15:46;95540.47;;;4.69;22.72
21826;BME280;11075;47.944;11.776;2023-01-29T12:18:35;95542.63;;;5.78;21.39
21826;BME280;11075;47.944;11.776;2023-01-29T12:21:36;95521.56;;;6.14;21.81
21826;BME280;11075;47.944;11.776;2023-01-29T12:24:12;95528.63;;;6.80;20.92
21826;BME280;11075;47.944;11.776;2023-01-29T12:26:55;95520.09;;;5.36;21.64
21826;BME280;11075;47.944;11.776;2023-01-29T12:29:36;95503.22;;;5.65;21.82
21826;BME280;11075;47.944;11.776;2023-01-29T12:32:31;95497.09;;;4.83;22.78
21826;BME280;11075;47.944;11.776;2023-01-29T12:35:25;95479.47;;;0.89;27.22
21826;BME280;11075;47.944;11.776;2023-01-29T12:40:39;95490.16;;;5.11;22.97
21826;BME280;11075;47.944;11.776;2023-01-29T12:43:14;95510.13;;;5.18;22.42
21826;BME280;11075;47.944;11.776;2023-01-29T12:45:45;95507.38;;;4.99;22.52
21826;BME280;11075;47.944;11.776;2023-01-29T12:48:19;95514.63;;;4.21;23.02
21826;BME280;11075;47.944;11.776;2023-01-29T12:50:49;95507.31;;;3.28;23.74
21826;BME280;11075;47.944;11.776;2023-01-29T12:53:30;95508.81;;;5.87;21.54
21826;BME280;11075;47.944;11.776;2023-01-29T12:56:49;95499.72;;;3.60;23.98
21826;BME280;11075;47.944;11.776;2023-01-29T12:58:53;95497.88;;;3.66;23.69
21826;BME280;11075;47.944;11.776;2023-01-29T13:01:33;95484.00;;;4.52;22.73
21826;BME280;11075;47.944;11.776;2023-01-29T13:04:29;95474.66;;;3.61;23.87
21826;BME280;11075;47.944;11.776;2023-01-29T13:07:09;95476.72;;;4.92;22.60
21826;BME280;11075;47.944;11.776;2023-01-29T13:09:41;95476.66;;;6.81;21.14
21826;BME280;11075;47.944;11.776;2023-01-29T13:12:16;95466.22;;;4.37;24.04
21826;BME280;11075;47.944;11.776;2023-01-29T13:14:59;95455.19;;;3.71;24.88
21826;BME280;11075;47.944;11.776;2023-01-29T13:17:39;95468.56;;;5.07;22.80
21826;BME280;11075;47.944;11.776;2023-01-29T13:22:45;95478.78;;;5.00;21.99
21826;BME280;11075;47.944;11.776;2023-01-29T13:25:15;95463.44;;;4.53;23.28
21826;BME280;11075;47.944;11.776;2023-01-29T13:27:43;95455.66;;;4.22;23.65
21826;BME280;11075;47.944;11.776;2023-01-29T13:30:29;95465.00;;;5.64;22.03
21826;BME280;11075;47.944;11.776;2023-01-29T13:32:59;95461.97;;;6.46;21.01
21826;BME280;11075;47.944;11.776;2023-01-29T13:35:41;95458.28;;;6.42;20.72
21826;BME280;11075;47.944;11.776;2023-01-29T13:38:26;95432.28;;;3.65;24.34
21826;BME280;11075;47.944;11.776;2023-01-29T13:41:02;95443.19;;;4.81;22.30
21826;BME280;11075;47.944;11.776;2023-01-29T13:43:39;95438.03;;;6.69;21.21
21826;BME280;11075;47.944;11.776;2023-01-29T13:46:10;95440.63;;;6.41;20.57
21826;BME280;11075;47.944;11.776;2023-01-29T13:48:44;95438.03;;;7.42;20.31
21826;BME280;11075;47.944;11.776;2023-01-29T13:51:15;95431.34;;;6.99;20.39
21826;BME280;11075;47.944;11.776;2023-01-29T13:53:55;95423.75;;;6.73;21.00
21826;BME280;11075;47.944;11.776;2023-01-29T13:56:42;95433.94;;;7.45;19.66
21826;BME280;11075;47.944;11.776;2023-01-29T14:02:26;95435.84;;;7.94;19.99
21826;BME280;11075;47.944;11.776;2023-01-29T14:10:36;95420.16;;;7.38;20.50
21826;BME280;11075;47.944;11.776;2023-01-29T14:15:34;95429.78;;;7.39;20.58
21826;BME280;11075;47.944;11.776;2023-01-29T14:18:03;95430.72;;;8.20;19.82
21826;BME280;11075;47.944;11.776;2023-01-29T14:20:35;95427.94;;;7.75;20.30
21826;BME280;11075;47.944;11.776;2023-01-29T14:28:57;95399.03;;;6.30;21.57
21826;BME280;11075;47.944;11.776;2023-01-29T14:31:47;95402.81;;;7.71;20.11
21826;BME280;11075;47.944;11.776;2023-01-29T14:36:50;95422.31;;;6.94;20.41
21826;BME280;11075;47.944;11.776;2023-01-29T14:41:56;95422.41;;;6.43;20.77
21826;BME280;11075;47.944;11.776;2023-01-29T14:49:56;95427.41;;;6.63;20.97
21826;BME280;11075;47.944;11.776;2023-01-29T14:52:32;95439.88;;;7.01;20.47
21826;BME280;11075;47.944;11.776;2023-01-29T14:55:06;95435.88;;;5.82;21.42
21826;BME280;11075;47.944;11.776;2023-01-29T14:57:34;95427.84;;;5.63;21.68
21826;BME280;11075;47.944;11.776;2023-01-29T15:00:05;95433.25;;;7.25;20.13
21826;BME280;11075;47.944;11.776;2023-01-29T15:02:43;95436.16;;;6.83;20.37
21826;BME280;11075;47.944;11.776;2023-01-29T15:05:16;95437.00;;;6.51;20.49
21826;BME280;11075;47.944;11.776;2023-01-29T15:07:54;95431.66;;;6.64;20.37
21826;BME280;11075;47.944;11.776;2023-01-29T15:13:06;95388.25;;;6.35;24.96
21826;BME280;11075;47.944;11.776;2023-01-29T15:15:53;95415.44;;;6.42;20.81
21826;BME280;11075;47.944;11.776;2023-01-29T15:18:32;95425.47;;;5.99;21.08
21826;BME280;11075;47.944;11.776;2023-01-29T15:21:02;95431.25;;;6.57;20.93
21826;BME280;11075;47.944;11.776;2023-01-29T15:23:32;95422.50;;;7.12;20.63
21826;BME280;11075;47.944;11.776;2023-01-29T15:26:03;95417.97;;;6.52;21.38
21826;BME280;11075;47.944;11.776;2023-01-29T15:28:32;95403.66;;;6.43;20.83
21826;BME280;11075;47.944;11.776;2023-01-29T15:31:05;95410.41;;;7.01;20.89
21826;BME280;11075;47.944;11.776;2023-01-29T15:33:35;95421.06;;;6.59;21.36
21826;BME280;11075;47.944;11.776;2023-01-29T15:36:06;95414.97;;;6.21;21.70
21826;BME280;11075;47.944;11.776;2023-01-29T15:38:34;95431.09;;;5.79;22.08
21826;BME280;11075;47.944;11.776;2023-01-29T15:41:17;95419.50;;;6.21;21.63
21826;BME280;11075;47.944;11.776;2023-01-29T15:43:56;95429.28;;;5.31;22.42
21826;BME280;11075;47.944;11.776;2023-01-29T15:46:25;95432.75;;;4.84;22.71
21826;BME280;11075;47.944;11.776;2023-01-29T15:48:56;95432.66;;;6.36;21.21
21826;BME280;11075;47.944;11.776;2023-01-29T15:51:26;95439.25;;;6.25;21.25